Time;durP1;ratioP1;P1;durP2;ratioP2;P2;SDS_P1;SDS_P2;PMS_P1;PMS_P2;Temp;Humidity;BMP_temperature;BMP_pressure;BME280_temperature;BME280_humidity;BME280_pressure;Samples;Min_cycle;Max_cycle;Signal;HPM_P1;HPM_P2
2022/10/05 00:00:56;;;;;;;14.65;7.13;;;16.80;99.90;;;;;;5075529;28;20067;-81
2022/10/05 00:03:23;;;;;;;14.55;7.30;;;16.20;99.90;;;;;;5093291;28;20455;-80
2022/10/05 00:05:49;;;;;;;10.63;6.63;;;16.20;99.90;;;;;;5075231;28;20462;-80
2022/10/05 00:08:18;;;;;;;9.98;6.60;;;16.20;99.90;;;;;;5096149;28;20070;-80
2022/10/05 00:10:45;;;;;;;11.82;6.93;;;16.30;99.90;;;;;;5114034;28;20052;-80
2022/10/05 00:13:18;;;;;;;10.20;6.75;;;17.10;99.90;;;;;;5079093;28;20042;-81
2022/10/05 00:15:44;;;;;;;10.10;6.78;;;16.10;99.90;;;;;;5095526;28;20126;-81
2022/10/05 00:18:19;;;;;;;8.85;6.50;;;16.20;99.90;;;;;;5096103;28;20092;-81
2022/10/05 00:20:46;;;;;;;14.40;7.10;;;16.20;99.90;;;;;;5113670;28;20065;-81
2022/10/05 00:23:21;;;;;;;12.48;7.30;;;16.20;99.90;;;;;;5112401;28;20411;-81
2022/10/05 00:25:47;;;;;;;11.88;6.78;;;16.20;99.90;;;;;;5113920;28;20118;-81
2022/10/05 00:28:28;;;;;;;9.07;6.43;;;16.10;99.90;;;;;;5095582;28;20143;-80
2022/10/05 00:30:58;;;;;;;13.40;7.10;;;16.60;99.90;;;;;;5095299;28;20040;-81
2022/10/05 00:33:24;;;;;;;11.15;6.80;;;16.10;99.90;;;;;;5113674;28;20399;-81
2022/10/05 00:35:50;;;;;;;9.18;6.53;;;16.10;99.90;;;;;;5078727;28;20491;-80
2022/10/05 00:38:15;;;;;;;13.05;6.50;;;16.40;99.90;;;;;;5112760;28;20090;-81
2022/10/05 00:40:44;;;;;;;11.52;6.88;;;16.10;99.90;;;;;;5113774;28;20046;-81
2022/10/05 00:43:46;;;;;;;7.68;5.90;;;16.10;99.90;;;;;;5095348;28;20499;-81
2022/10/05 00:46:16;;;;;;;10.35;6.53;;;16.10;99.90;;;;;;5113344;28;20047;-80
2022/10/05 00:49:12;;;;;;;11.93;6.35;;;16.10;99.90;;;;;;5094986;28;20053;-81
2022/10/05 00:51:44;;;;;;;10.30;5.88;;;16.10;99.90;;;;;;5093244;28;20044;-81
2022/10/05 00:54:27;;;;;;;9.45;5.55;;;16.10;99.90;;;;;;5078306;28;20046;-81
2022/10/05 00:57:03;;;;;;;8.30;5.63;;;16.20;99.90;;;;;;5094956;28;20092;-81
2022/10/05 00:59:40;;;;;;;9.38;5.70;;;16.10;99.90;;;;;;5076133;28;20141;-81
2022/10/05 01:02:19;;;;;;;9.80;5.10;;;16.10;99.90;;;;;;5074661;28;20044;-80
2022/10/05 01:04:56;;;;;;;8.60;5.55;;;16.10;99.90;;;;;;5074259;28;20134;-81
2022/10/05 01:07:50;;;;;;;9.55;5.03;;;16.10;99.90;;;;;;5092746;28;20047;-81
2022/10/05 01:10:38;;;;;;;8.65;4.60;;;16.00;99.90;;;;;;5093111;28;20378;-80
2022/10/05 01:13:26;;;;;;;6.10;4.65;;;16.00;99.90;;;;;;5057750;28;20048;-80
2022/10/05 01:16:04;;;;;;;7.15;4.72;;;16.00;99.90;;;;;;5072396;28;20417;-80
2022/10/05 01:18:48;;;;;;;9.55;4.93;;;16.00;99.90;;;;;;5093266;28;20120;-81
2022/10/05 01:21:19;;;;;;;8.15;4.47;;;16.00;99.90;;;;;;5092623;28;20439;-81
2022/10/05 01:24:21;;;;;;;9.18;4.82;;;16.10;99.90;;;;;;5092628;28;20046;-81
2022/10/05 01:27:15;;;;;;;6.72;4.22;;;16.10;99.90;;;;;;5074681;28;20121;-81
2022/10/05 01:30:14;;;;;;;6.20;3.92;;;16.00;99.90;;;;;;5092757;28;20055;-80
2022/10/05 01:32:52;;;;;;;9.90;4.72;;;16.10;99.90;;;;;;5048477;28;20481;-80
2022/10/05 01:35:37;;;;;;;6.95;4.28;;;16.10;99.90;;;;;;5056517;28;20040;-81
2022/10/05 01:38:22;;;;;;;8.38;4.32;;;16.10;99.90;;;;;;5074678;28;20036;-81
2022/10/05 01:41:00;;;;;;;7.78;4.78;;;16.20;99.90;;;;;;5074555;28;20476;-80
2022/10/05 01:43:50;;;;;;;9.45;4.75;;;16.10;99.90;;;;;;5092438;28;20040;-80
2022/10/05 01:46:22;;;;;;;8.07;4.72;;;16.10;99.90;;;;;;5074155;28;20051;-80
2022/10/05 01:49:18;;;;;;;8.77;4.63;;;16.20;99.90;;;;;;5092391;28;20051;-81
2022/10/05 01:52:27;;;;;;;10.88;4.72;;;16.20;99.90;;;;;;5092030;28;20044;-80
2022/10/05 01:55:23;;;;;;;8.60;4.88;;;16.10;99.90;;;;;;5028291;28;20089;-81
2022/10/05 01:58:26;;;;;;;8.00;5.20;;;16.20;99.90;;;;;;5092205;28;20052;-81
2022/10/05 02:01:11;;;;;;;9.73;5.15;;;16.10;99.90;;;;;;5092165;28;20109;-80
2022/10/05 02:03:52;;;;;;;7.82;5.20;;;16.10;99.90;;;;;;5074418;28;20071;-81
2022/10/05 02:06:25;;;;;;;8.82;5.68;;;16.80;99.90;;;;;;5073944;28;20087;-81
2022/10/05 02:09:00;;;;;;;8.40;5.25;;;16.20;99.90;;;;;;5057531;28;20051;-81
2022/10/05 02:11:26;;;;;;;10.80;5.30;;;17.30;99.90;;;;;;5092114;28;20071;-80
2022/10/05 02:14:00;;;;;;;8.57;5.18;;;16.10;99.90;;;;;;5092148;28;20488;-80
2022/10/05 02:16:39;;;;;;;10.13;5.45;;;16.10;99.90;;;;;;5092565;28;20040;-81
2022/10/05 02:19:22;;;;;;;8.55;5.65;;;16.10;99.90;;;;;;5077516;28;20048;-80
2022/10/05 02:21:53;;;;;;;10.70;5.90;;;16.00;99.90;;;;;;5075260;28;20135;-81
2022/10/05 02:24:30;;;;;;;9.10;5.68;;;16.00;99.90;;;;;;5096041;28;20048;-80
2022/10/05 02:26:56;;;;;;;11.50;5.50;;;16.80;99.90;;;;;;5077792;28;20396;-80
2022/10/05 02:29:26;;;;;;;9.85;5.68;;;16.00;99.90;;;;;;5092053;28;20507;-80
2022/10/05 02:31:56;;;;;;;9.13;5.40;;;16.00;99.90;;;;;;5080867;28;20047;-80
2022/10/05 02:34:28;;;;;;;9.90;5.43;;;16.00;99.90;;;;;;5116396;28;20055;-81
2022/10/05 02:37:22;;;;;;;7.95;5.25;;;15.90;99.90;;;;;;5097798;28;20063;-80
2022/10/05 02:40:15;;;;;;;7.78;5.30;;;15.90;99.90;;;;;;5116049;28;20082;-80
2022/10/05 02:42:53;;;;;;;9.05;5.20;;;15.90;99.90;;;;;;5115141;28;20043;-80
2022/10/05 02:45:50;;;;;;;11.80;5.50;;;16.50;99.90;;;;;;5115529;28;20048;-81
2022/10/05 02:48:28;;;;;;;7.88;5.20;;;15.80;99.90;;;;;;5115807;28;20489;-81
2022/10/05 02:51:21;;;;;;;8.07;5.93;;;16.00;99.90;;;;;;5097410;28;20119;-81
2022/10/05 02:54:28;;;;;;;8.45;5.50;;;15.90;99.90;;;;;;5097508;28;20059;-80
2022/10/05 02:57:29;;;;;;;7.43;5.13;;;15.90;99.90;;;;;;5059280;28;20508;-80
2022/10/05 03:00:00;;;;;;;9.52;5.18;;;15.90;99.90;;;;;;5093275;28;20105;-80
2022/10/05 03:02:43;;;;;;;7.95;4.75;;;15.90;99.90;;;;;;5097092;28;20027;-81
2022/10/05 03:05:30;;;;;;;8.75;5.50;;;15.90;99.90;;;;;;5097577;28;20077;-80
2022/10/05 03:08:19;;;;;;;9.50;5.25;;;15.80;99.90;;;;;;5097062;28;20085;-80
2022/10/05 03:10:59;;;;;;;8.10;4.88;;;15.90;99.90;;;;;;5114090;28;20047;-81
2022/10/05 03:13:46;;;;;;;9.15;4.80;;;15.90;99.90;;;;;;5078280;28;20044;-81
2022/10/05 03:16:42;;;;;;;8.50;4.45;;;15.90;99.90;;;;;;5094772;28;20040;-80
2022/10/05 03:19:10;;;;;;;6.78;4.50;;;15.90;99.90;;;;;;5095108;28;20036;-81
2022/10/05 03:22:07;;;;;;;7.90;4.38;;;15.90;99.90;;;;;;5094363;28;20040;-81
2022/10/05 03:25:10;;;;;;;8.52;4.82;;;15.90;99.90;;;;;;5076850;28;20377;-81
2022/10/05 03:27:54;;;;;;;8.52;4.82;;;15.90;99.90;;;;;;5075710;28;20040;-80
2022/10/05 03:30:22;;;;;;;7.85;4.32;;;15.90;99.90;;;;;;5094282;28;20052;-81
2022/10/05 03:33:12;;;;;;;8.55;4.82;;;16.10;99.90;;;;;;5058753;28;20147;-81
2022/10/05 03:35:50;;;;;;;9.45;4.70;;;16.00;99.90;;;;;;5075382;28;20095;-80
2022/10/05 03:38:29;;;;;;;8.32;4.60;;;16.00;99.90;;;;;;5059454;28;20047;-80
2022/10/05 03:41:00;;;;;;;8.15;4.32;;;15.90;99.90;;;;;;5074544;28;20090;-81
2022/10/05 03:43:47;;;;;;;7.15;4.47;;;15.90;99.90;;;;;;5094213;28;20101;-80
2022/10/05 03:46:29;;;;;;;8.00;4.35;;;16.00;99.90;;;;;;5094034;28;20037;-80
2022/10/05 03:49:03;;;;;;;8.63;4.68;;;16.00;99.90;;;;;;5094373;28;20563;-80
2022/10/05 03:51:35;;;;;;;8.30;4.30;;;16.00;99.90;;;;;;5093639;28;20493;-80
2022/10/05 03:54:22;;;;;;;6.20;4.00;;;16.00;99.90;;;;;;5076485;28;20054;-80
2022/10/05 03:57:05;;;;;;;6.63;3.95;;;16.00;99.90;;;;;;5075486;28;20051;-80
2022/10/05 04:00:05;;;;;;;7.32;4.20;;;16.00;99.90;;;;;;5094283;28;20036;-80
2022/10/05 04:02:41;;;;;;;6.47;4.22;;;16.00;99.90;;;;;;5093931;28;20047;-80
2022/10/05 04:05:09;;;;;;;;;;;16.00;99.90;;;;;;5094693;28;20475;-80
2022/10/05 04:07:38;;;;;;;6.53;4.20;;;15.90;99.90;;;;;;5058615;28;19942;-80
2022/10/05 04:10:10;;;;;;;7.60;4.20;;;16.50;99.90;;;;;;5075961;28;20395;-80
2022/10/05 04:12:41;;;;;;;9.63;4.68;;;15.90;99.90;;;;;;5075540;28;20044;-80
2022/10/05 04:15:25;;;;;;;7.10;4.38;;;16.20;99.90;;;;;;5059210;28;20441;-80
2022/10/05 04:18:02;;;;;;;7.47;4.93;;;15.90;99.90;;;;;;5074864;28;20040;-81
2022/10/05 04:20:43;;;;;;;8.93;5.05;;;15.90;99.90;;;;;;5074354;28;20056;-80
2022/10/05 04:23:26;;;;;;;9.63;4.88;;;15.90;99.90;;;;;;5093384;28;20048;-80
2022/10/05 04:26:04;;;;;;;6.63;4.38;;;15.90;99.90;;;;;;5074488;28;20138;-81
2022/10/05 04:28:41;;;;;;;10.07;5.00;;;15.90;99.90;;;;;;5075697;28;20400;-81
2022/10/05 04:31:14;;;;;;;8.50;4.88;;;15.90;99.90;;;;;;5075124;28;20043;-81
2022/10/05 04:33:49;;;;;;;9.65;4.95;;;15.90;99.90;;;;;;5093170;28;20516;-81
2022/10/05 04:36:29;;;;;;;8.23;5.07;;;15.90;99.90;;;;;;5093261;28;20122;-80
2022/10/05 04:39:13;;;;;;;8.82;4.97;;;15.90;99.90;;;;;;5075125;28;20040;-81
2022/10/05 04:42:07;;;;;;;8.25;4.72;;;15.90;99.90;;;;;;5074721;28;20044;-81
2022/10/05 04:44:58;;;;;;;8.68;5.32;;;15.80;99.90;;;;;;5074505;28;20052;-80
2022/10/05 04:47:56;;;;;;;9.27;4.30;;;15.80;99.90;;;;;;5074064;28;20043;-80
2022/10/05 04:50:45;;;;;;;9.73;5.40;;;15.80;99.90;;;;;;5075910;28;20325;-81
2022/10/05 04:53:39;;;;;;;8.10;4.80;;;15.70;99.90;;;;;;5075045;28;20074;-81
2022/10/05 04:56:16;;;;;;;7.88;5.38;;;15.80;99.90;;;;;;5074704;28;20069;-81
2022/10/05 04:59:29;;;;;;;9.15;5.45;;;15.80;99.90;;;;;;5092957;28;20493;-80
2022/10/05 05:02:20;;;;;;;8.90;4.35;;;15.80;99.90;;;;;;5048992;28;20507;-81
2022/10/05 05:04:46;;;;;;;9.13;5.80;;;15.80;99.90;;;;;;5075108;28;20040;-81
2022/10/05 05:07:23;;;;;;;11.70;6.15;;;16.00;99.90;;;;;;5092844;28;20036;-80
2022/10/05 05:10:14;;;;;;;13.02;6.57;;;15.80;99.90;;;;;;5092249;28;20126;-81
2022/10/05 05:12:47;;;;;;;11.35;6.22;;;15.80;99.90;;;;;;5072523;28;20050;-81
2022/10/05 05:15:25;;;;;;;11.00;6.90;;;15.80;99.90;;;;;;5072689;28;20071;-80
2022/10/05 05:18:14;;;;;;;9.70;6.53;;;15.80;99.90;;;;;;5073034;28;20146;-80
2022/10/05 05:21:03;;;;;;;10.73;6.53;;;15.80;99.90;;;;;;5073563;28;20040;-80
2022/10/05 05:23:59;;;;;;;12.88;6.72;;;15.80;99.90;;;;;;5092678;28;20174;-81
2022/10/05 05:26:47;;;;;;;11.98;7.00;;;15.70;99.90;;;;;;5092777;28;20052;-81
2022/10/05 05:29:39;;;;;;;13.48;7.00;;;15.80;99.90;;;;;;5074505;28;20080;-80
2022/10/05 05:32:20;;;;;;;11.75;6.75;;;15.80;99.90;;;;;;5057119;28;20083;-81
2022/10/05 05:35:01;;;;;;;12.10;6.13;;;15.70;99.90;;;;;;5092579;28;20559;-81
2022/10/05 05:37:45;;;;;;;12.48;7.15;;;15.70;99.90;;;;;;5092703;28;20054;-81
2022/10/05 05:40:16;;;;;;;9.55;6.45;;;15.70;99.90;;;;;;5092547;28;20055;-80
2022/10/05 05:43:01;;;;;;;10.95;6.40;;;15.70;99.90;;;;;;5092301;28;20044;-80
2022/10/05 05:45:32;;;;;;;8.82;6.30;;;16.50;99.90;;;;;;5092654;28;20069;-81
2022/10/05 05:48:01;;;;;;;10.82;6.75;;;15.70;99.90;;;;;;5074417;28;20062;-81
2022/10/05 05:50:48;;;;;;;12.88;6.78;;;16.10;99.90;;;;;;5072335;28;20044;-81
2022/10/05 05:53:16;;;;;;;9.57;6.03;;;16.60;99.90;;;;;;5094323;28;20124;-80
2022/10/05 05:55:50;;;;;;;9.65;6.25;;;16.60;99.90;;;;;;5095296;28;20066;-81
2022/10/05 05:58:16;;;;;;;11.82;5.93;;;15.70;99.90;;;;;;5061337;28;20105;-81
2022/10/05 06:01:02;;;;;;;10.02;5.80;;;15.60;99.90;;;;;;5096290;28;20048;-81
2022/10/05 06:03:36;;;;;;;11.70;6.40;;;15.70;99.90;;;;;;5095954;28;20036;-81
2022/10/05 06:06:13;;;;;;;11.98;6.50;;;15.70;99.90;;;;;;5077867;28;20047;-80
2022/10/05 06:08:42;;;;;;;10.38;6.43;;;15.70;99.90;;;;;;5096346;28;20036;-80
2022/10/05 06:11:15;;;;;;;9.25;5.35;;;16.80;99.90;;;;;;5077555;28;20252;-80
2022/10/05 06:13:41;;;;;;;8.90;6.15;;;15.70;99.90;;;;;;5095967;28;20420;-81
2022/10/05 06:16:45;;;;;;;9.88;6.38;;;16.10;99.90;;;;;;5095796;28;20135;-80
2022/10/05 06:19:15;;;;;;;8.55;5.60;;;15.70;99.90;;;;;;5078254;28;20475;-81
2022/10/05 06:21:52;;;;;;;9.65;6.30;;;15.90;99.90;;;;;;5095413;28;20128;-81
2022/10/05 06:24:39;;;;;;;10.27;5.80;;;15.70;99.90;;;;;;5077595;28;20052;-81
2022/10/05 06:27:23;;;;;;;8.60;5.72;;;15.70;99.90;;;;;;5077464;28;20412;-81
2022/10/05 06:30:06;;;;;;;9.52;5.93;;;15.80;99.90;;;;;;5077532;28;20424;-81
2022/10/05 06:32:42;;;;;;;10.60;5.82;;;15.70;99.90;;;;;;5077349;28;20450;-81
2022/10/05 06:35:35;;;;;;;9.60;6.03;;;15.80;99.90;;;;;;5077902;28;20400;-81
2022/10/05 06:38:19;;;;;;;10.50;5.70;;;15.80;99.90;;;;;;5077361;28;20082;-81
2022/10/05 06:41:09;;;;;;;10.15;5.70;;;16.50;99.90;;;;;;5095010;28;20083;-81
2022/10/05 06:43:50;;;;;;;7.60;5.55;;;15.80;99.90;;;;;;5095152;28;20048;-81
2022/10/05 06:46:39;;;;;;;8.80;5.30;;;15.80;99.90;;;;;;5076799;28;20464;-82
2022/10/05 06:49:17;;;;;;;10.57;5.50;;;15.80;99.90;;;;;;5094896;28;20150;-81
2022/10/05 06:52:07;;;;;;;8.77;5.47;;;15.80;99.90;;;;;;5076586;28;20097;-81
2022/10/05 06:54:47;;;;;;;12.00;5.40;;;15.80;99.90;;;;;;5077543;28;20088;-80
2022/10/05 06:57:31;;;;;;;9.93;5.68;;;15.80;99.90;;;;;;5076682;28;20048;-81
2022/10/05 07:00:16;;;;;;;7.70;5.30;;;15.70;99.90;;;;;;5076994;28;20082;-81
2022/10/05 07:02:53;;;;;;;9.03;5.37;;;15.70;99.90;;;;;;5094860;28;20044;-79
2022/10/05 07:05:45;;;;;;;8.20;5.53;;;15.90;99.90;;;;;;5085708;28;20127;-81
2022/10/05 07:08:17;;;;;;;11.77;5.90;;;15.70;99.90;;;;;;5095281;28;20054;-81
2022/10/05 07:10:58;;;;;;;9.27;5.65;;;15.80;99.90;;;;;;5114553;28;20550;-81
2022/10/05 07:13:58;;;;;;;7.57;5.30;;;16.60;99.90;;;;;;5114857;27;20043;-80
2022/10/05 07:16:37;;;;;;;8.88;4.93;;;15.80;99.90;;;;;;5113314;28;20058;-79
2022/10/05 07:19:17;;;;;;;8.07;5.15;;;15.80;99.90;;;;;;5113589;28;20135;-80
2022/10/05 07:21:58;;;;;;;8.90;5.30;;;15.80;99.90;;;;;;5114527;28;20039;-79
2022/10/05 07:24:56;;;;;;;8.38;5.40;;;15.80;99.90;;;;;;5113523;28;20043;-80
2022/10/05 07:27:26;;;;;;;7.32;4.63;;;15.80;99.90;;;;;;5114316;28;20050;-80
2022/10/05 07:30:06;;;;;;;8.80;4.90;;;15.80;99.90;;;;;;5099380;28;20121;-80
2022/10/05 07:32:43;;;;;;;7.25;4.50;;;15.90;99.90;;;;;;5058619;28;20052;-80
2022/10/05 07:37:53;;;;;;;9.15;4.80;;;15.90;99.90;;;;;;5076048;28;20048;-80
2022/10/05 07:38:07;;;;;;;7.13;4.25;;;15.90;99.90;;;;;;5094256;28;20044;-80
2022/10/05 07:40:49;;;;;;;8.15;4.28;;;16.00;99.90;;;;;;5075595;28;20062;-80
2022/10/05 07:43:24;;;;;;;7.38;4.13;;;16.00;99.90;;;;;;5058795;28;20123;-80
2022/10/05 07:46:00;;;;;;;7.40;4.15;;;16.00;99.90;;;;;;5075472;28;20040;-79
2022/10/05 07:48:49;;;;;;;7.18;4.32;;;16.00;99.90;;;;;;5092275;28;20059;-80
2022/10/05 07:51:37;;;;;;;8.02;4.40;;;16.00;99.90;;;;;;5092347;28;20131;-80
2022/10/05 07:54:09;;;;;;;5.90;3.95;;;16.10;99.90;;;;;;5075481;28;20044;-80
2022/10/05 07:56:43;;;;;;;8.45;4.05;;;16.10;99.90;;;;;;5093552;28;20048;-80
2022/10/05 07:59:25;;;;;;;5.93;3.65;;;15.50;99.90;;;;;;5093705;28;20040;-81
2022/10/05 08:02:01;;;;;;;5.03;3.50;;;16.10;99.90;;;;;;5091964;28;20465;-80
2022/10/05 08:04:33;;;;;;;7.03;3.80;;;15.60;99.90;;;;;;5093508;28;20055;-80
2022/10/05 08:07:05;;;;;;;5.25;3.53;;;17.10;99.90;;;;;;5075040;28;20041;-80
2022/10/05 08:10:01;;;;;;;5.50;3.40;;;16.20;99.90;;;;;;5058507;28;20101;-79
2022/10/05 08:12:53;;;;;;;7.75;3.03;;;16.10;99.90;;;;;;5075056;28;20056;-79
2022/10/05 08:15:26;;;;;;;4.85;3.05;;;16.30;99.90;;;;;;5058209;28;20127;-80
2022/10/05 08:18:04;;;;;;;5.40;3.03;;;16.30;99.90;;;;;;5093084;28;20055;-80
2022/10/05 08:20:48;;;;;;;5.38;2.55;;;16.30;99.90;;;;;;5093407;28;20032;-80
2022/10/05 08:23:22;;;;;;;4.80;2.88;;;16.30;99.90;;;;;;5093342;28;20040;-80
2022/10/05 08:26:12;;;;;;;4.43;2.38;;;16.30;99.90;;;;;;5092465;28;20079;-80
2022/10/05 08:28:59;;;;;;;6.32;2.58;;;16.40;99.90;;;;;;5092937;28;20052;-80
2022/10/05 08:31:31;;;;;;;4.18;2.50;;;16.40;99.90;;;;;;5070928;28;20162;-80
2022/10/05 08:34:29;;;;;;;3.40;2.00;;;16.50;99.90;;;;;;5092951;28;20109;-80
2022/10/05 08:37:13;;;;;;;5.55;2.30;;;16.40;99.90;;;;;;5074755;28;20052;-80
2022/10/05 08:39:45;;;;;;;4.13;2.10;;;16.70;99.90;;;;;;5098838;28;20035;-80
2022/10/05 08:42:35;;;;;;;3.83;2.30;;;16.70;99.90;;;;;;5112207;28;20036;-80
2022/10/05 08:45:29;;;;;;;3.70;2.30;;;16.70;99.90;;;;;;5095154;28;20511;-80
2022/10/05 08:47:56;;;;;;;4.43;2.40;;;16.70;99.90;;;;;;5094785;28;20068;-80
2022/10/05 08:50:47;;;;;;;3.75;2.20;;;16.80;99.90;;;;;;5112903;28;20051;-80
2022/10/05 08:53:40;;;;;;;4.93;2.40;;;16.90;99.90;;;;;;5112721;28;20047;-80
2022/10/05 08:56:29;;;;;;;3.42;2.30;;;17.00;99.90;;;;;;5111189;28;20468;-81
2022/10/05 08:59:22;;;;;;;4.38;2.60;;;16.40;99.90;;;;;;5094487;28;20049;-81
2022/10/05 09:02:09;;;;;;;5.15;2.53;;;17.00;99.90;;;;;;5112184;28;20488;-80
2022/10/05 09:04:39;;;;;;;3.45;2.60;;;17.10;99.90;;;;;;5112608;28;20492;-79
2022/10/05 09:07:11;;;;;;;5.60;2.60;;;17.10;99.90;;;;;;5112684;28;20039;-79
2022/10/05 09:10:13;;;;;;;7.50;2.60;;;17.20;99.90;;;;;;5112630;28;20381;-81
2022/10/05 09:12:54;;;;;;;5.30;2.67;;;17.30;99.90;;;;;;5112301;28;20398;-79
2022/10/05 09:15:56;;;;;;;5.90;2.70;;;17.40;99.90;;;;;;5112565;28;20040;-79
2022/10/05 09:18:22;;;;;;;3.75;2.40;;;17.50;99.90;;;;;;5094545;28;20488;-79
2022/10/05 09:21:04;;;;;;;5.28;3.08;;;17.60;99.90;;;;;;5112366;28;20504;-79
2022/10/05 09:23:41;;;;;;;5.15;2.70;;;17.60;99.90;;;;;;5094377;28;20039;-80
2022/10/05 09:26:29;;;;;;;7.07;2.88;;;17.70;99.90;;;;;;5094190;28;20062;-79
2022/10/05 09:29:34;;;;;;;8.13;2.78;;;17.60;99.90;;;;;;5091836;28;20429;-80
2022/10/05 09:32:22;;;;;;;5.93;3.13;;;17.70;99.90;;;;;;5096522;28;20078;-80
2022/10/05 09:35:12;;;;;;;5.53;2.75;;;17.70;99.90;;;;;;5096207;28;20044;-80
2022/10/05 09:38:14;;;;;;;6.60;3.20;;;17.60;99.90;;;;;;5096116;28;20048;-80
2022/10/05 09:41:00;;;;;;;7.00;3.17;;;17.80;99.90;;;;;;5078126;28;20059;-80
2022/10/05 09:43:45;;;;;;;;;;;17.70;99.90;;;;;;5044144;28;20059;-80
2022/10/05 09:46:29;;;;;;;4.57;2.90;;;17.70;99.90;;;;;;5094471;28;20333;-80
2022/10/05 09:49:07;;;;;;;7.55;3.42;;;17.80;99.90;;;;;;5094707;28;20036;-81
2022/10/05 09:51:44;;;;;;;9.25;3.10;;;17.90;99.90;;;;;;5095672;28;20446;-80
2022/10/05 09:54:31;;;;;;;8.05;2.92;;;17.30;99.90;;;;;;5095627;28;20080;-80
2022/10/05 09:57:15;;;;;;;6.90;3.05;;;18.00;99.90;;;;;;5077548;28;20080;-80
2022/10/05 10:00:12;;;;;;;4.60;3.03;;;17.90;99.90;;;;;;5060742;28;20063;-80
2022/10/05 10:03:06;;;;;;;6.47;2.97;;;17.90;99.90;;;;;;5094953;28;20551;-80
2022/10/05 10:05:32;;;;;;;6.47;3.13;;;18.00;99.90;;;;;;5096069;28;20048;-81
2022/10/05 10:08:25;;;;;;;7.90;2.80;;;17.90;99.90;;;;;;5096462;28;20051;-81
2022/10/05 10:11:03;;;;;;;5.00;2.63;;;18.00;99.90;;;;;;5060901;28;20123;-80
2022/10/05 10:13:35;;;;;;;4.40;2.90;;;17.90;99.90;;;;;;5077665;28;20056;-81
2022/10/05 10:16:03;;;;;;;7.45;3.00;;;18.00;99.90;;;;;;5095722;28;20048;-80
2022/10/05 10:19:06;;;;;;;5.93;2.80;;;18.60;99.90;;;;;;5095522;28;20155;-80
2022/10/05 10:21:50;;;;;;;6.60;2.88;;;17.80;99.90;;;;;;5077054;28;20048;-80
2022/10/05 10:24:40;;;;;;;6.30;2.75;;;18.00;99.90;;;;;;5095365;28;20043;-80
2022/10/05 10:27:15;;;;;;;4.88;3.28;;;17.90;99.90;;;;;;5077063;28;20144;-80
2022/10/05 10:30:25;;;;;;;4.88;2.80;;;17.80;99.90;;;;;;5077463;28;20373;-80
2022/10/05 10:33:17;;;;;;;6.57;2.95;;;17.70;99.90;;;;;;4992884;28;20120;-80
2022/10/05 10:35:49;;;;;;;7.32;3.00;;;17.60;99.90;;;;;;5094795;28;20063;-81
2022/10/05 10:38:22;;;;;;;7.28;2.90;;;17.60;99.90;;;;;;5076783;28;20084;-80
2022/10/05 10:41:09;;;;;;;6.75;3.00;;;17.50;99.90;;;;;;5076291;28;20044;-80
2022/10/05 10:43:38;;;;;;;5.30;2.90;;;17.50;99.90;;;;;;5095587;28;20058;-81
2022/10/05 10:46:16;;;;;;;7.60;3.50;;;17.50;99.90;;;;;;5094809;28;20048;-81
2022/10/05 10:48:48;;;;;;;6.10;3.10;;;16.90;99.90;;;;;;5076799;28;20106;-80
2022/10/05 10:51:32;;;;;;;5.55;3.10;;;17.40;99.90;;;;;;5076328;28;20035;-81
2022/10/05 10:54:20;;;;;;;6.32;3.00;;;17.40;99.90;;;;;;5077125;28;20040;-81
2022/10/05 10:57:04;;;;;;;5.90;2.90;;;17.30;99.90;;;;;;5094724;28;20044;-81
2022/10/05 10:59:49;;;;;;;7.25;2.78;;;16.60;99.90;;;;;;5095148;28;20400;-81
2022/10/05 11:02:32;;;;;;;5.95;3.00;;;17.30;99.90;;;;;;5076157;28;20044;-81
2022/10/05 11:05:24;;;;;;;5.32;2.97;;;17.30;99.90;;;;;;5094522;28;20036;-81
2022/10/05 11:08:12;;;;;;;7.35;3.03;;;17.30;99.90;;;;;;5094398;28;20048;-81
2022/10/05 11:11:07;;;;;;;5.88;3.20;;;17.30;99.90;;;;;;5094293;28;20044;-81
2022/10/05 11:14:09;;;;;;;4.55;3.20;;;17.30;99.90;;;;;;5076152;28;20083;-81
2022/10/05 11:16:49;;;;;;;5.57;3.30;;;17.20;99.90;;;;;;5093880;28;20105;-82
2022/10/05 11:19:52;;;;;;;5.53;3.10;;;17.20;99.90;;;;;;5076273;28;20043;-81
2022/10/05 11:22:24;;;;;;;7.13;3.47;;;16.60;99.90;;;;;;5076032;28;20367;-81
2022/10/05 11:24:58;;;;;;;6.97;3.75;;;17.60;99.90;;;;;;5094139;28;20130;-81
2022/10/05 11:27:43;;;;;;;8.23;3.97;;;17.30;99.90;;;;;;5094065;28;20404;-81
2022/10/05 11:30:27;;;;;;;4.68;3.50;;;17.20;99.90;;;;;;5089720;28;20051;-80
2022/10/05 11:33:11;;;;;;;7.65;3.45;;;17.20;99.90;;;;;;5075543;28;20440;-80
2022/10/05 11:35:46;;;;;;;6.97;3.35;;;17.20;99.90;;;;;;5071575;28;20098;-80
2022/10/05 11:38:28;;;;;;;4.80;3.58;;;17.20;99.90;;;;;;5074150;28;20048;-80
2022/10/05 11:41:17;;;;;;;9.13;3.40;;;17.20;99.90;;;;;;5073870;28;20397;-80
2022/10/05 11:44:12;;;;;;;4.97;3.28;;;17.00;99.90;;;;;;5072277;28;20048;-81
2022/10/05 11:46:58;;;;;;;5.57;3.10;;;17.10;99.90;;;;;;5071288;28;20040;-81
2022/10/05 11:49:27;;;;;;;5.35;3.33;;;17.10;99.90;;;;;;5072792;28;20076;-81
2022/10/05 11:52:01;;;;;;;4.70;3.20;;;17.40;99.90;;;;;;5072256;28;20046;-81
2022/10/05 11:54:37;;;;;;;4.47;3.17;;;17.10;99.90;;;;;;5074531;28;20066;-81
2022/10/05 11:57:27;;;;;;;4.35;3.13;;;17.00;99.90;;;;;;5072184;28;20049;-81
2022/10/05 12:00:22;;;;;;;6.32;3.60;;;17.10;99.90;;;;;;5073210;28;20045;-80
2022/10/05 12:02:51;;;;;;;5.80;3.00;;;17.10;99.90;;;;;;5063238;28;20355;-80
2022/10/05 12:05:58;;;;;;;6.00;3.22;;;17.10;99.90;;;;;;5072222;28;20054;-80
2022/10/05 12:08:45;;;;;;;4.75;3.30;;;17.10;99.90;;;;;;5090914;28;20044;-80
2022/10/05 12:11:30;;;;;;;6.25;3.30;;;17.10;99.90;;;;;;5091122;28;20052;-81
2022/10/05 12:14:11;;;;;;;4.75;3.13;;;17.10;99.90;;;;;;5091253;28;20134;-80
2022/10/05 12:16:42;;;;;;;4.18;2.90;;;17.10;99.90;;;;;;5091793;28;20036;-80
2022/10/05 12:19:20;;;;;;;4.13;3.03;;;17.10;99.90;;;;;;5093135;28;20079;-81
2022/10/05 12:22:09;;;;;;;4.53;2.92;;;17.20;99.90;;;;;;5092802;28;20040;-80
2022/10/05 12:24:34;;;;;;;5.43;3.15;;;17.20;99.90;;;;;;5091351;28;20048;-80
2022/10/05 12:27:03;;;;;;;4.03;2.90;;;17.20;99.90;;;;;;5092232;28;20047;-80
2022/10/05 12:29:39;;;;;;;3.70;2.85;;;17.20;99.90;;;;;;5093231;28;20036;-79
2022/10/05 12:32:10;;;;;;;5.68;3.10;;;17.30;99.90;;;;;;5093638;28;20143;-79
2022/10/05 12:34:56;;;;;;;5.55;3.10;;;16.70;99.90;;;;;;5113585;28;20134;-80
2022/10/05 12:37:39;;;;;;;4.85;3.30;;;17.30;99.90;;;;;;5112916;28;20051;-81
2022/10/05 12:40:40;;;;;;;3.60;2.65;;;17.30;99.90;;;;;;5113137;28;20429;-80
2022/10/05 12:43:13;;;;;;;7.45;3.00;;;17.40;99.90;;;;;;5111952;28;20052;-81
2022/10/05 12:46:01;;;;;;;3.75;3.22;;;17.40;99.90;;;;;;5095098;28;20047;-80
2022/10/05 12:48:55;;;;;;;6.00;3.30;;;17.40;99.90;;;;;;5095156;28;20040;-80
2022/10/05 12:51:27;;;;;;;5.65;3.17;;;17.40;99.90;;;;;;5094429;28;20507;-81
2022/10/05 12:54:23;;;;;;;7.70;3.20;;;17.40;99.90;;;;;;5094633;28;20074;-80
2022/10/05 12:57:07;;;;;;;5.68;2.80;;;17.30;99.90;;;;;;5094220;28;20050;-80
2022/10/05 12:59:46;;;;;;;5.95;3.08;;;17.40;99.90;;;;;;5112588;28;20043;-80
2022/10/05 13:02:43;;;;;;;4.60;3.10;;;17.30;99.90;;;;;;5112307;28;20392;-81
2022/10/05 13:05:08;;;;;;;5.07;3.00;;;17.30;99.90;;;;;;5111494;28;20081;-80
2022/10/05 13:08:11;;;;;;;8.60;3.05;;;17.30;99.90;;;;;;5111573;28;20483;-80
2022/10/05 13:10:45;;;;;;;4.78;3.08;;;18.00;99.90;;;;;;5112911;28;20062;-81
2022/10/05 13:13:11;;;;;;;6.32;3.55;;;17.20;99.90;;;;;;5094536;28;20044;-81
2022/10/05 13:15:49;;;;;;;5.75;3.30;;;17.30;99.90;;;;;;5094501;28;20507;-81
2022/10/05 13:18:28;;;;;;;6.15;3.03;;;17.30;99.90;;;;;;5112773;28;20044;-81
2022/10/05 13:21:01;;;;;;;5.50;3.28;;;17.30;99.90;;;;;;5112759;28;20043;-81
2022/10/05 13:23:33;;;;;;;6.18;3.60;;;17.30;99.90;;;;;;5112066;28;20110;-81
2022/10/05 13:26:09;;;;;;;4.78;3.15;;;17.40;99.90;;;;;;5110526;28;20097;-80
2022/10/05 13:28:50;;;;;;;7.43;3.60;;;17.50;99.90;;;;;;5110879;28;20040;-80
2022/10/05 13:31:36;;;;;;;7.90;3.30;;;17.60;99.90;;;;;;5111300;28;20051;-80
2022/10/05 13:34:13;;;;;;;5.32;3.33;;;17.50;99.90;;;;;;5110528;28;20091;-81
2022/10/05 13:36:38;;;;;;;5.93;3.60;;;17.60;99.90;;;;;;5111877;28;20135;-80
2022/10/05 13:39:26;;;;;;;5.47;3.67;;;16.90;99.90;;;;;;5094308;28;20090;-81
2022/10/05 13:42:08;;;;;;;9.15;3.80;;;17.00;99.90;;;;;;5106303;28;20093;-81
2022/10/05 13:44:49;;;;;;;7.45;3.90;;;17.50;99.90;;;;;;5092141;28;20074;-81
2022/10/05 13:47:37;;;;;;;8.43;4.10;;;16.80;99.90;;;;;;5091887;28;20463;-81
2022/10/05 13:50:27;;;;;;;6.47;3.50;;;17.50;99.90;;;;;;5109089;28;20400;-80
2022/10/05 13:53:05;;;;;;;7.28;3.60;;;17.90;99.90;;;;;;5100384;28;20481;-81
2022/10/05 13:55:44;;;;;;;5.00;3.38;;;17.60;99.90;;;;;;5091448;28;20052;-81
2022/10/05 13:58:31;;;;;;;5.93;3.20;;;17.50;99.90;;;;;;5091847;28;20047;-81
2022/10/05 14:01:01;;;;;;;5.35;3.33;;;17.90;99.90;;;;;;5072108;28;20040;-81